Time;durP1;ratioP1;P1;durP2;ratioP2;P2;SDS_P1;SDS_P2;PMS_P1;PMS_P2;Temp;Humidity;BMP_temperature;BMP_pressure;BME280_temperature;BME280_humidity;BME280_pressure;Samples;Min_cycle;Max_cycle;Signal;HPM_P1;HPM_P2
2021/05/19 00:02:10;;;;;;;7.35;3.20;;;;;;;9.06;100.00;97465.63;4972236;28;20054;-76
2021/05/19 00:04:37;;;;;;;6.57;3.13;;;;;;;9.09;100.00;97475.81;4989050;28;20042;-77
2021/05/19 00:07:03;;;;;;;7.22;3.42;;;;;;;9.10;100.00;97468.53;4990630;28;20429;-78
2021/05/19 00:09:30;;;;;;;5.63;3.47;;;;;;;9.14;100.00;97469.50;4989709;28;20437;-77
2021/05/19 00:11:56;;;;;;;8.05;3.80;;;;;;;9.16;100.00;97461.91;4990272;28;20544;-76
2021/05/19 00:14:23;;;;;;;7.05;3.90;;;;;;;9.17;100.00;97471.59;4989292;28;20051;-77
2021/05/19 00:16:50;;;;;;;6.95;3.88;;;;;;;9.19;100.00;97464.75;4971174;28;20411;-79
2021/05/19 00:19:18;;;;;;;6.60;4.00;;;;;;;9.20;100.00;97468.28;4988712;28;20447;-77
2021/05/19 00:21:45;;;;;;;6.00;3.80;;;;;;;9.21;100.00;97461.78;4997928;28;20060;-76
2021/05/19 00:24:12;;;;;;;6.05;4.40;;;;;;;9.24;100.00;97463.81;4991699;28;20181;-78
2021/05/19 00:26:39;;;;;;;7.70;4.63;;;;;;;9.26;100.00;97464.34;4987859;28;20042;-76
2021/05/19 00:29:12;;;;;;;9.25;5.32;;;;;;;9.24;100.00;97467.31;4987941;28;20050;-77
2021/05/19 00:31:41;;;;;;;7.85;5.15;;;;;;;9.20;100.00;97462.88;4988647;28;20657;-77
2021/05/19 00:34:12;;;;;;;8.70;5.28;;;;;;;9.26;100.00;97475.13;4988450;28;20058;-78
2021/05/19 00:36:41;;;;;;;9.32;5.38;;;;;;;9.24;100.00;97461.94;4988446;28;20057;-77
2021/05/19 00:39:09;;;;;;;7.85;5.22;;;;;;;9.28;100.00;97473.72;4987595;28;20263;-77
2021/05/19 00:41:42;;;;;;;11.85;5.88;;;;;;;9.22;100.00;97466.84;4970477;28;20042;-78
2021/05/19 00:44:12;;;;;;;11.00;6.55;;;;;;;9.22;100.00;97466.03;4986232;23;20046;-80
2021/05/19 00:46:45;;;;;;;10.82;6.85;;;;;;;9.21;100.00;97470.66;4994286;28;20045;-81
2021/05/19 00:49:15;;;;;;;11.23;6.97;;;;;;;9.20;100.00;97474.47;4975799;28;20065;-80
2021/05/19 00:51:42;;;;;;;11.60;6.70;;;;;;;9.22;100.00;97474.16;4992424;28;20069;-82
2021/05/19 00:54:10;;;;;;;12.35;6.95;;;;;;;9.21;100.00;97467.16;4976847;28;20038;-81
2021/05/19 00:56:37;;;;;;;12.98;6.82;;;;;;;9.15;100.00;97473.81;4959786;28;20404;-81
2021/05/19 00:59:04;;;;;;;10.00;6.28;;;;;;;9.11;100.00;97473.59;4959438;28;20106;-80
2021/05/19 01:01:37;;;;;;;11.27;6.68;;;;;;;9.12;100.00;97482.50;4975393;28;20066;-82
2021/05/19 01:04:05;;;;;;;13.98;7.10;;;;;;;9.14;100.00;97469.50;4974536;28;20054;-80
2021/05/19 01:12:00;;;;;;;11.83;7.77;;;;;;;9.12;100.00;97485.22;4977388;28;20054;-79
2021/05/19 01:14:26;;;;;;;14.00;8.27;;;;;;;9.14;100.00;97481.09;4961989;28;20046;-80
2021/05/19 01:16:53;;;;;;;14.45;8.60;;;;;;;9.12;100.00;97488.72;4978185;28;20062;-80
2021/05/19 01:19:21;;;;;;;12.63;8.55;;;;;;;9.14;100.00;97481.09;4961295;28;20050;-80
2021/05/19 01:21:50;;;;;;;16.67;9.15;;;;;;;9.11;100.00;97476.31;4961694;28;20074;-78
2021/05/19 01:24:18;;;;;;;16.30;9.45;;;;;;;9.10;100.00;97490.94;4961065;28;20074;-80
2021/05/19 01:26:46;;;;;;;15.70;9.55;;;;;;;9.12;100.00;97491.41;4961576;28;20046;-81
2021/05/19 01:29:14;;;;;;;16.08;9.27;;;;;;;9.12;100.00;97487.91;4963330;28;20116;-80
2021/05/19 01:31:45;;;;;;;19.58;10.93;;;;;;;9.14;100.00;97488.41;4962877;28;20113;-79
2021/05/19 01:34:15;;;;;;;18.40;10.98;;;;;;;9.05;100.00;97487.56;4994412;23;20125;-79
2021/05/19 01:36:45;;;;;;;19.55;11.40;;;;;;;9.00;100.00;97485.00;4997431;28;20659;-79
2021/05/19 01:39:12;;;;;;;17.13;10.88;;;;;;;9.09;100.00;97496.63;5014767;28;20586;-79
2021/05/19 01:41:39;;;;;;;19.65;11.32;;;;;;;9.07;100.00;97496.16;4998767;28;20054;-79
2021/05/19 01:44:15;;;;;;;23.77;11.65;;;;;;;9.11;100.00;97491.75;4978820;28;20062;-78
2021/05/19 01:46:42;;;;;;;20.30;12.07;;;;;;;9.09;100.00;97489.31;5006141;23;20402;-75
2021/05/19 01:49:10;;;;;;;23.25;13.65;;;;;;;9.05;100.00;97498.38;4991473;28;20054;-76
2021/05/19 01:51:38;;;;;;;21.48;13.20;;;;;;;9.10;100.00;97501.75;4992053;28;20069;-75
2021/05/19 01:54:06;;;;;;;22.20;12.27;;;;;;;9.09;100.00;97502.84;4995480;28;20343;-75
2021/05/19 01:56:40;;;;;;;26.08;13.43;;;;;;;9.07;100.00;97507.75;4993457;28;20046;-75
2021/05/19 01:59:07;;;;;;;23.35;13.43;;;;;;;8.98;100.00;97492.59;4990036;28;20526;-76
2021/05/19 02:01:34;;;;;;;23.02;13.63;;;;;;;9.05;100.00;97499.16;4975596;28;20112;-75
2021/05/19 02:04:09;;;;;;;22.83;13.50;;;;;;;9.12;100.00;97510.31;4991534;28;20050;-75
2021/05/19 02:06:49;;;;;;;26.73;14.20;;;;;;;9.12;100.00;97504.13;4974504;28;20525;-75
2021/05/19 02:09:18;;;;;;;23.40;13.82;;;;;;;9.07;100.00;97507.75;4990430;28;20051;-76
2021/05/19 02:11:46;;;;;;;22.52;14.30;;;;;;;9.08;100.00;97508.56;4991920;28;20039;-75
2021/05/19 02:14:14;;;;;;;24.58;14.80;;;;;;;9.08;100.00;97505.84;4989749;28;20046;-77
2021/05/19 02:16:42;;;;;;;26.33;16.00;;;;;;;9.02;100.00;97498.97;4989984;28;20048;-76
2021/05/19 02:19:10;;;;;;;27.27;16.08;;;;;;;9.07;100.00;97510.44;4974453;28;20042;-76
2021/05/19 02:21:44;;;;;;;25.65;16.48;;;;;;;9.05;100.00;97511.88;4992959;28;20424;-76
2021/05/19 02:24:12;;;;;;;26.60;16.10;;;;;;;9.08;100.00;97506.66;4992078;28;20051;-77
2021/05/19 02:26:40;;;;;;;30.33;16.55;;;;;;;9.10;100.00;97519.84;4993023;28;20039;-76
2021/05/19 02:29:08;;;;;;;31.02;16.73;;;;;;;9.07;100.00;97510.44;4993369;28;20093;-76
2021/05/19 02:31:38;;;;;;;26.20;16.08;;;;;;;9.04;100.00;97502.16;4991958;28;20046;-76
2021/05/19 02:34:05;;;;;;;26.50;16.08;;;;;;;9.06;100.00;97513.47;4990532;28;20054;-75
2021/05/19 02:36:32;;;;;;;28.73;16.63;;;;;;;9.01;100.00;97522.47;4972809;28;20042;-75
2021/05/19 02:38:59;;;;;;;26.88;16.13;;;;;;;9.04;100.00;97511.06;4972355;28;20061;-76
2021/05/19 02:41:26;;;;;;;25.80;15.80;;;;;;;9.01;100.00;97517.06;4989335;28;20054;-74
2021/05/19 02:43:52;;;;;;;26.60;16.02;;;;;;;9.03;100.00;97522.19;4990758;28;20050;-76
2021/05/19 02:46:19;;;;;;;30.23;16.08;;;;;;;9.08;100.00;97519.34;4994745;28;20069;-76
2021/05/19 02:48:46;;;;;;;35.00;18.70;;;;;;;9.06;100.00;97525.03;4994404;28;20058;-77
2021/05/19 02:51:13;;;;;;;30.95;17.98;;;;;;;9.10;100.00;97511.75;4993656;28;20473;-75
2021/05/19 02:53:39;;;;;;;30.10;18.70;;;;;;;9.07;100.00;97521.25;4994574;28;20100;-76
2021/05/19 02:56:08;;;;;;;33.28;19.20;;;;;;;9.09;100.00;97507.44;4994024;28;20054;-77
2021/05/19 02:58:35;;;;;;;35.40;19.88;;;;;;;9.11;100.00;97522.22;4978070;28;20057;-76
2021/05/19 03:01:03;;;;;;;34.05;19.75;;;;;;;9.10;100.00;97512.53;4993637;28;20534;-76
2021/05/19 03:03:29;;;;;;;35.67;20.33;;;;;;;9.08;100.00;97517.47;4974849;28;20049;-74
2021/05/19 03:05:56;;;;;;;37.50;21.15;;;;;;;9.10;100.00;97519.84;4982455;28;20081;-76
2021/05/19 03:08:23;;;;;;;32.05;20.15;;;;;;;9.17;100.00;97517.50;4992180;28;20047;-75
2021/05/19 03:10:49;;;;;;;36.38;20.70;;;;;;;9.14;100.00;97510.81;4990289;28;20046;-75
2021/05/19 03:13:16;;;;;;;36.45;20.95;;;;;;;9.08;100.00;97497.75;4995449;28;20050;-76
2021/05/19 03:15:42;;;;;;;36.40;20.60;;;;;;;9.13;100.00;97513.81;4991681;28;20497;-76
2021/05/19 03:18:09;;;;;;;33.53;19.83;;;;;;;9.15;100.00;97512.41;4956743;28;20050;-75
2021/05/19 03:20:35;;;;;;;37.65;20.75;;;;;;;9.15;100.00;97506.22;4990182;28;20050;-76
2021/05/19 03:23:02;;;;;;;35.85;20.80;;;;;;;9.06;100.00;97510.78;4990447;28;20054;-76
2021/05/19 03:25:29;;;;;;;35.80;20.83;;;;;;;9.04;100.00;97502.16;4990443;28;20449;-76
2021/05/19 03:27:56;;;;;;;32.08;19.20;;;;;;;9.03;100.00;97503.28;4972143;28;20121;-77
2021/05/19 03:30:23;;;;;;;36.40;20.15;;;;;;;9.00;100.00;97502.00;4990894;28;20366;-77
2021/05/19 03:32:50;;;;;;;30.08;17.25;;;;;;;9.00;100.00;97520.88;4990258;28;20422;-77
2021/05/19 03:35:17;;;;;;;29.25;16.52;;;;;;;9.01;100.00;97527.88;4972135;28;20065;-76
2021/05/19 03:37:44;;;;;;;28.08;15.60;;;;;;;9.06;100.00;97527.75;4989859;28;20042;-75
2021/05/19 03:40:13;;;;;;;27.13;15.35;;;;;;;9.04;100.00;97529.16;4989694;28;20047;-77
2021/05/19 03:42:40;;;;;;;26.85;15.32;;;;;;;9.05;100.00;97526.16;4990174;28;20112;-77
2021/05/19 03:45:09;;;;;;;25.25;14.18;;;;;;;9.08;100.00;97524.75;4990304;28;20463;-77
2021/05/19 03:47:35;;;;;;;27.13;14.23;;;;;;;8.97;100.00;97521.50;4972363;28;20398;-75
2021/05/19 03:50:07;;;;;;;26.38;14.07;;;;;;;9.01;100.00;97517.06;4987757;28;20593;-76
2021/05/19 03:52:34;;;;;;;24.98;14.30;;;;;;;9.08;100.00;97524.75;4991022;28;20058;-76
2021/05/19 03:55:02;;;;;;;22.00;12.93;;;;;;;9.00;100.00;97526.28;4989031;28;20417;-76
2021/05/19 03:57:29;;;;;;;24.40;13.48;;;;;;;9.01;100.00;97527.06;4956642;28;20046;-77
2021/05/19 03:59:55;;;;;;;30.58;15.35;;;;;;;8.99;100.00;97538.19;4991059;28;20058;-76
2021/05/19 04:02:22;;;;;;;29.38;15.90;;;;;;;8.95;100.00;97544.50;4992647;28;20041;-76
2021/05/19 04:04:49;;;;;;;30.38;16.70;;;;;;;8.93;100.00;97542.09;4972642;28;20050;-77
2021/05/19 04:07:16;;;;;;;29.45;16.20;;;;;;;8.92;100.00;97545.13;4972786;28;20043;-75
2021/05/19 04:09:42;;;;;;;31.80;16.63;;;;;;;8.88;100.00;97547.63;4988452;28;20053;-76
2021/05/19 04:12:09;;;;;;;29.60;17.02;;;;;;;8.90;100.00;97553.53;4972795;28;20452;-77
2021/05/19 04:14:36;;;;;;;32.55;17.33;;;;;;;8.94;100.00;97549.09;4970896;28;20523;-76
2021/05/19 04:17:02;;;;;;;28.10;16.08;;;;;;;8.91;100.00;97546.22;4988712;28;20053;-74
2021/05/19 04:19:29;;;;;;;30.20;16.65;;;;;;;8.97;100.00;97558.50;4972575;28;20050;-76
2021/05/19 04:21:55;;;;;;;29.52;16.85;;;;;;;8.98;100.00;97563.56;4988265;28;20054;-76
2021/05/19 04:24:23;;;;;;;29.77;15.90;;;;;;;9.01;100.00;97559.47;4972833;28;20054;-78
2021/05/19 04:26:49;;;;;;;29.40;15.77;;;;;;;8.97;100.00;97570.09;4990018;28;20046;-76
2021/05/19 04:29:16;;;;;;;27.15;15.35;;;;;;;9.01;100.00;97573.78;4989420;28;20050;-76
2021/05/19 04:31:42;;;;;;;25.83;14.93;;;;;;;9.04;100.00;97562.38;4971562;28;20046;-75
2021/05/19 04:34:09;;;;;;;24.35;14.32;;;;;;;9.05;100.00;97560.47;4989271;28;20284;-76
2021/05/19 04:36:36;;;;;;;25.83;14.10;;;;;;;9.09;100.00;97570.34;4973090;28;20461;-76
2021/05/19 04:39:05;;;;;;;24.20;14.68;;;;;;;9.09;100.00;97572.25;4989099;28;20072;-76
2021/05/19 04:41:31;;;;;;;22.85;13.32;;;;;;;9.13;100.00;97568.63;4987146;28;20493;-76
2021/05/19 04:43:59;;;;;;;23.27;13.95;;;;;;;9.12;100.00;97564.34;4987523;28;20058;-75
2021/05/19 04:46:26;;;;;;;28.25;14.48;;;;;;;9.18;100.00;97573.13;4969399;28;20137;-76
2021/05/19 04:48:58;;;;;;;22.10;13.65;;;;;;;9.21;100.00;97569.81;4986757;28;20069;-76
2021/05/19 04:51:27;;;;;;;25.65;14.63;;;;;;;9.23;100.00;97579.19;4973282;28;20105;-77
2021/05/19 04:53:54;;;;;;;25.35;14.75;;;;;;;9.31;100.00;97577.66;4986167;28;20054;-76
2021/05/19 04:56:22;;;;;;;26.45;15.82;;;;;;;9.34;100.00;97579.75;4988237;28;20417;-76
2021/05/19 04:58:48;;;;;;;23.58;14.38;;;;;;;9.46;100.00;97574.56;4987055;28;20493;-75
2021/05/19 05:01:15;;;;;;;24.85;15.07;;;;;;;9.49;100.00;97575.84;4985510;28;20484;-75
2021/05/19 05:03:42;;;;;;;23.52;14.65;;;;;;;9.54;100.00;97575.72;4968509;28;20046;-75
2021/05/19 05:06:09;;;;;;;25.48;15.10;;;;;;;9.65;100.00;97579.78;4986302;28;20533;-76
2021/05/19 05:08:35;;;;;;;21.52;13.35;;;;;;;9.72;100.00;97569.31;4985905;28;20046;-75
2021/05/19 05:11:02;;;;;;;22.23;14.23;;;;;;;9.70;100.00;97579.63;4985808;28;20050;-75
2021/05/19 05:13:28;;;;;;;32.28;16.83;;;;;;;9.80;100.00;97572.06;4985616;28;20061;-76
2021/05/19 05:15:55;;;;;;;26.02;16.38;;;;;;;9.66;100.00;97575.94;4969668;28;20450;-74
2021/05/19 05:18:22;;;;;;;27.58;16.38;;;;;;;9.61;100.00;97574.19;4987394;28;20445;-75
2021/05/19 05:20:48;;;;;;;23.50;14.70;;;;;;;9.54;100.00;97579.22;4984936;28;20046;-76
2021/05/19 05:23:15;;;;;;;24.75;15.35;;;;;;;9.38;100.00;97583.41;4968987;28;20053;-74
2021/05/19 05:25:42;;;;;;;25.83;15.90;;;;;;;9.37;100.00;97595.31;4986869;28;20125;-76
2021/05/19 05:28:09;;;;;;;29.45;16.75;;;;;;;9.26;100.00;97589.38;4985922;28;20046;-77
2021/05/19 05:30:35;;;;;;;32.92;19.45;;;;;;;9.18;100.00;97586.63;4969670;28;20054;-75
2021/05/19 05:33:02;;;;;;;32.40;20.52;;;;;;;9.13;100.00;97601.03;4990396;28;20066;-74
2021/05/19 05:35:28;;;;;;;31.88;19.95;;;;;;;9.12;100.00;97601.34;4969941;28;20521;-75
2021/05/19 05:37:55;;;;;;;36.58;20.17;;;;;;;9.20;100.00;97609.50;4968491;28;20356;-76
2021/05/19 05:40:22;;;;;;;36.33;20.33;;;;;;;9.18;100.00;97602.81;4985632;28;20117;-75
2021/05/19 05:42:48;;;;;;;43.10;25.08;;;;;;;9.13;100.00;97605.66;4968144;28;20042;-76
2021/05/19 05:45:15;;;;;;;45.45;25.88;;;;;;;9.16;100.00;97613.91;4969305;28;20050;-75
2021/05/19 05:47:42;;;;;;;46.22;26.73;;;;;;;9.24;100.00;97623.19;4985940;28;20061;-75
2021/05/19 05:50:09;;;;;;;48.55;27.90;;;;;;;9.23;100.00;97621.59;4967795;28;20118;-75
2021/05/19 05:52:36;;;;;;;56.97;31.20;;;;;;;9.21;100.00;97621.91;4985900;28;20042;-75
2021/05/19 05:55:03;;;;;;;55.22;32.25;;;;;;;9.23;100.00;97621.59;4963496;28;20046;-74
2021/05/19 05:57:31;;;;;;;57.22;33.13;;;;;;;9.19;100.00;97624.13;4987401;28;20383;-75
2021/05/19 05:59:58;;;;;;;57.15;31.75;;;;;;;9.22;100.00;97628.09;4962952;28;20174;-75
2021/05/19 06:02:25;;;;;;;56.83;31.70;;;;;;;9.24;100.00;97626.69;4986434;28;20057;-75
2021/05/19 06:04:51;;;;;;;53.65;31.40;;;;;;;9.27;100.00;97628.78;4988258;28;20049;-75
2021/05/19 06:07:18;;;;;;;44.45;28.63;;;;;;;9.38;100.00;97634.75;4971062;28;20048;-75
2021/05/19 06:09:51;;;;;;;39.20;24.90;;;;;;;9.33;100.00;97630.28;4986189;28;20055;-74
2021/05/19 06:12:18;;;;;;;27.10;18.13;;;;;;;9.23;100.00;97635.91;4989049;28;20050;-75
2021/05/19 06:14:44;;;;;;;25.92;16.60;;;;;;;9.18;100.00;97637.94;4987319;28;20053;-75
2021/05/19 06:17:12;;;;;;;21.85;15.43;;;;;;;9.22;100.00;97642.41;4991685;28;20046;-76
2021/05/19 06:19:40;;;;;;;18.35;12.25;;;;;;;9.16;100.00;97648.25;4991417;28;20501;-76
2021/05/19 06:22:10;;;;;;;17.85;10.70;;;;;;;9.09;100.00;97654.06;4992140;28;20043;-74
2021/05/19 06:24:37;;;;;;;19.10;11.95;;;;;;;9.18;100.00;97652.25;4973920;28;20076;-75
2021/05/19 06:27:04;;;;;;;14.48;8.00;;;;;;;9.04;100.00;97645.25;4992151;28;20038;-75
2021/05/19 06:29:31;;;;;;;10.77;6.60;;;;;;;9.01;100.00;97633.16;4990930;28;20099;-76
2021/05/19 06:31:58;;;;;;;11.05;6.57;;;;;;;8.91;100.00;97648.78;4974351;28;20672;-76
2021/05/19 06:34:25;;;;;;;8.80;5.97;;;;;;;8.91;100.00;97646.09;4989503;28;20046;-75
2021/05/19 06:36:52;;;;;;;11.75;7.15;;;;;;;9.01;100.00;97648.56;4993356;28;20048;-74
2021/05/19 06:39:19;;;;;;;10.00;6.65;;;;;;;9.05;100.00;97652.28;4991846;28;20047;-74
2021/05/19 06:41:48;;;;;;;8.02;4.95;;;;;;;8.88;100.00;97652.91;4974824;28;20042;-75
2021/05/19 06:44:16;;;;;;;9.77;5.47;;;;;;;8.85;100.00;97652.72;4990010;28;20057;-74
2021/05/19 06:46:44;;;;;;;7.70;4.57;;;;;;;8.73;100.00;97662.13;4974811;28;20105;-74
2021/05/19 06:49:11;;;;;;;5.07;3.78;;;;;;;8.55;100.00;97664.94;4992174;28;20448;-76
2021/05/19 06:51:38;;;;;;;5.15;3.83;;;;;;;8.44;100.00;97660.88;4992087;28;20050;-76
2021/05/19 06:54:05;;;;;;;7.68;4.45;;;;;;;8.36;100.00;97662.34;4991112;28;20050;-74
2021/05/19 06:56:32;;;;;;;7.45;4.38;;;;;;;8.13;100.00;97663.28;4990137;28;20050;-75
2021/05/19 06:59:00;;;;;;;10.63;5.50;;;;;;;8.15;100.00;97667.28;4978160;28;20057;-74
2021/05/19 07:01:28;;;;;;;7.03;4.57;;;;;;;8.07;100.00;97676.09;4995916;28;20060;-75
2021/05/19 07:03:54;;;;;;;8.82;5.10;;;;;;;8.04;100.00;97667.78;4981996;28;20046;-75
2021/05/19 07:06:22;;;;;;;8.77;5.57;;;;;;;8.03;100.00;97677.75;4992230;28;20662;-76
2021/05/19 07:08:48;;;;;;;10.13;6.10;;;;;;;8.05;100.00;97683.66;4991247;28;20039;-76
2021/05/19 07:11:15;;;;;;;9.20;5.72;;;;;;;8.04;100.00;97681.25;4991538;28;20046;-74
2021/05/19 07:13:42;;;;;;;19.05;6.20;;;;;;;7.97;100.00;97694.34;4993743;28;20047;-75
2021/05/19 07:16:12;;;;;;;11.68;6.47;;;;;;;8.00;100.00;97683.75;4994995;28;20125;-76
2021/05/19 07:18:39;;;;;;;9.93;6.60;;;;;;;8.03;100.00;97690.44;4990398;28;20037;-75
2021/05/19 07:21:06;;;;;;;11.77;6.75;;;;;;;8.07;100.00;97694.97;4991794;28;20500;-76
2021/05/19 07:23:33;;;;;;;16.20;9.88;;;;;;;8.15;100.00;97705.03;4975428;28;20588;-77
2021/05/19 07:26:02;;;;;;;18.05;10.20;;;;;;;8.18;100.00;97701.75;4991307;28;20050;-76
2021/05/19 07:28:29;;;;;;;19.60;10.88;;;;;;;8.27;100.00;97699.22;4991531;28;20053;-75
2021/05/19 07:30:56;;;;;;;19.95;11.07;;;;;;;8.30;100.00;97697.81;4975118;28;20057;-77
2021/05/19 07:33:23;;;;;;;20.50;10.82;;;;;;;8.31;100.00;97712.91;4975042;28;20047;-77
2021/05/19 07:35:50;;;;;;;24.45;11.45;;;;;;;8.42;100.00;97714.28;4973771;28;20065;-74
2021/05/19 07:38:17;;;;;;;21.48;12.02;;;;;;;8.42;100.00;97706.19;4990924;28;20034;-77
2021/05/19 07:40:43;;;;;;;22.60;12.95;;;;;;;8.50;100.00;97706.31;4973572;28;20057;-76
2021/05/19 07:43:10;;;;;;;23.20;13.05;;;;;;;8.51;100.00;97715.22;4995344;28;20050;-75
2021/05/19 07:48:10;;;;;;;22.48;12.40;;;;;;;8.52;100.00;97703.31;4951574;28;20047;-80
2021/05/19 07:51:03;;;;;;;21.77;12.95;;;;;;;8.58;100.00;97702.13;4968203;28;20043;-80
2021/05/19 07:53:27;;;;;;;25.88;14.10;;;;;;;8.65;100.00;97699.81;4953779;28;20130;-78
2021/05/19 07:58:40;;;;;;;24.92;14.82;;;;;;;8.90;100.00;97714.69;4981672;28;20085;-78
2021/05/19 08:01:23;;;;;;;27.00;16.50;;;;;;;9.05;100.00;97709.78;4996324;28;20753;-78
2021/05/19 08:03:52;;;;;;;23.75;14.82;;;;;;;9.09;100.00;97713.47;4990250;28;20599;-81
2021/05/19 08:06:23;;;;;;;22.02;13.55;;;;;;;9.14;100.00;97705.25;4972971;28;20109;-80
2021/05/19 08:08:48;;;;;;;19.88;12.25;;;;;;;9.27;100.00;97717.13;4972464;28;20062;-80
2021/05/19 08:11:17;;;;;;;21.33;13.10;;;;;;;9.31;100.00;97710.84;4971825;28;20077;-80
2021/05/19 08:13:46;;;;;;;25.63;14.55;;;;;;;9.50;100.00;97705.25;4971752;28;20577;-79
2021/05/19 08:16:13;;;;;;;24.92;14.20;;;;;;;9.51;100.00;97706.03;4985448;28;20069;-78
2021/05/19 08:18:39;;;;;;;26.83;15.80;;;;;;;9.49;100.00;97724.47;4970285;28;20046;-77
2021/05/19 08:21:14;;;;;;;27.42;15.73;;;;;;;9.49;100.00;97705.56;4955567;28;20437;-78
2021/05/19 08:23:43;;;;;;;26.45;15.93;;;;;;;9.50;100.00;97712.56;4953646;29;20071;-79
2021/05/19 08:26:10;;;;;;;29.30;17.38;;;;;;;9.43;100.00;97718.38;4953661;29;20043;-78
2021/05/19 08:28:40;;;;;;;27.55;15.88;;;;;;;9.31;100.00;97716.22;4954947;28;20442;-78
2021/05/19 08:31:10;;;;;;;25.40;15.38;;;;;;;9.29;100.00;97718.41;4954291;28;20051;-77
2021/05/19 08:33:45;;;;;;;25.55;16.52;;;;;;;9.51;100.00;97714.97;4968806;28;20108;-77
2021/05/19 08:36:27;;;;;;;28.00;17.27;;;;;;;9.68;100.00;97720.50;4971136;28;20085;-79
2021/05/19 08:39:09;;;;;;;27.83;17.45;;;;;;;9.72;100.00;97716.09;4977216;28;20041;-78
2021/05/19 08:42:06;;;;;;;29.45;18.48;;;;;;;9.83;100.00;97709.31;4979821;28;20102;-79
2021/05/19 08:44:36;;;;;;;32.00;17.95;;;;;;;10.03;100.00;97706.13;4980616;28;20061;-80
2021/05/19 08:47:19;;;;;;;32.15;19.10;;;;;;;10.12;100.00;97691.84;4964563;28;20051;-79
2021/05/19 08:49:46;;;;;;;31.10;19.92;;;;;;;10.21;100.00;97693.50;4967670;28;20062;-80
2021/05/19 08:52:37;;;;;;;;;;;;;;;;;;;;;
2021/05/19 08:55:18;;;;;;;29.40;19.65;;;;;;;10.25;100.00;97701.78;4963617;28;20137;-79
2021/05/19 08:58:10;;;;;;;34.15;21.55;;;;;;;10.18;100.00;97696.84;4930664;29;20052;-78
2021/05/19 09:00:43;;;;;;;33.15;21.00;;;;;;;10.16;100.00;97709.06;4934273;29;20051;-79
2021/05/19 09:03:35;;;;;;;42.17;23.90;;;;;;;10.23;100.00;97714.84;4944963;28;20590;-78
2021/05/19 09:06:27;;;;;;;40.67;23.52;;;;;;;10.11;100.00;97726.22;4946381;29;20047;-78
2021/05/19 09:09:25;;;;;;;43.17;24.58;;;;;;;9.92;100.00;97714.78;4924852;29;20048;-78
2021/05/19 09:12:00;;;;;;;45.58;26.50;;;;;;;10.07;100.00;97725.22;4924297;29;20107;-78
2021/05/19 09:15:02;;;;;;;49.15;28.08;;;;;;;10.27;100.00;97713.91;4918511;29;20071;-79
2021/05/19 09:17:34;;;;;;;45.20;29.02;;;;;;;10.70;100.00;97719.50;4921062;29;20139;-78
2021/05/19 09:20:08;;;;;;;38.63;24.27;;;;;;;11.10;100.00;97721.06;4932357;29;20044;-80
2021/05/19 09:23:03;;;;;;;32.15;22.33;;;;;;;11.44;100.00;97717.59;4933686;29;20130;-80
2021/05/19 09:25:35;;;;;;;29.58;20.15;;;;;;;11.93;100.00;97708.19;4936187;29;20052;-80
2021/05/19 09:28:07;;;;;;;25.23;16.98;;;;;;;11.90;100.00;97691.78;4941426;28;20050;-78
2021/05/19 09:30:45;;;;;;;21.50;15.88;;;;;;;12.22;100.00;97699.34;4977030;28;20114;-80
2021/05/19 09:33:24;;;;;;;24.42;16.80;;;;;;;12.88;100.00;97692.38;4973260;28;20055;-79
2021/05/19 09:36:15;;;;;;;25.83;16.08;;;;;;;13.36;100.00;97683.78;4991856;28;20035;-81
2021/05/19 09:38:49;;;;;;;20.02;14.65;;;;;;;14.43;100.00;97681.03;4981990;28;20067;-80
2021/05/19 09:41:36;;;;;;;18.30;12.98;;;;;;;14.60;100.00;97684.34;4993654;28;20051;-80
2021/05/19 09:44:13;;;;;;;15.45;11.70;;;;;;;14.46;100.00;97683.88;4971572;28;20085;-80
2021/05/19 09:46:47;;;;;;;11.32;8.82;;;;;;;15.23;100.00;97680.09;4966765;28;20047;-76
2021/05/19 09:49:18;;;;;;;13.77;10.23;;;;;;;15.35;100.00;97676.56;4964331;28;20042;-77
2021/05/19 09:51:54;;;;;;;12.77;9.90;;;;;;;14.99;100.00;97669.25;4982942;28;20050;-78
2021/05/19 09:54:24;;;;;;;12.45;8.88;;;;;;;14.75;100.00;97663.78;4998872;28;20070;-78
2021/05/19 09:56:59;;;;;;;16.92;11.73;;;;;;;14.39;100.00;97659.13;4982694;28;20473;-79
2021/05/19 09:59:29;;;;;;;15.85;10.20;;;;;;;14.22;100.00;97662.78;4984915;28;20086;-82
2021/05/19 10:02:01;;;;;;;15.35;9.63;;;;;;;14.44;100.00;97664.34;4979015;28;20668;-78
2021/05/19 10:04:37;;;;;;;13.90;9.90;;;;;;;15.23;100.00;97657.47;4975333;28;20832;-80
2021/05/19 10:07:10;;;;;;;12.60;9.88;;;;;;;14.93;100.00;97668.69;4985201;28;20043;-79
2021/05/19 10:09:40;;;;;;;13.68;10.25;;;;;;;14.21;100.00;97660.44;4982221;28;20488;-80
2021/05/19 10:12:10;;;;;;;15.20;11.20;;;;;;;13.44;100.00;97658.47;4996034;28;20050;-80
2021/05/19 10:14:44;;;;;;;14.60;11.32;;;;;;;13.22;100.00;97659.56;4980579;28;20043;-80
2021/05/19 10:17:23;;;;;;;15.27;11.02;;;;;;;13.17;100.00;97648.09;4980549;28;20038;-80
2021/05/19 10:20:00;;;;;;;14.27;10.85;;;;;;;13.37;100.00;97653.53;4984099;28;20039;-77
2021/05/19 10:22:33;;;;;;;15.38;10.88;;;;;;;14.50;100.00;97657.56;4993314;28;20061;-79
2021/05/19 10:25:29;;;;;;;13.27;10.27;;;;;;;16.66;100.00;97642.72;4981945;28;20054;-80
2021/05/19 10:27:57;;;;;;;12.50;9.35;;;;;;;17.78;100.00;97640.94;4976881;28;20058;-79
2021/05/19 10:30:45;;;;;;;14.93;8.30;;;;;;;19.23;100.00;97647.75;4989816;28;20086;-79
2021/05/19 10:33:30;;;;;;;9.63;7.88;;;;;;;20.16;100.00;97644.19;4957204;28;20042;-79
2021/05/19 10:35:59;;;;;;;9.30;7.47;;;;;;;21.41;100.00;97640.16;4981174;28;20055;-80
2021/05/19 10:38:33;;;;;;;9.13;6.60;;;;;;;19.51;92.89;97632.84;4992848;28;20286;-78
2021/05/19 10:41:01;;;;;;;7.65;6.65;;;;;;;20.77;100.00;97625.16;4984901;28;20694;-78
2021/05/19 10:43:52;;;;;;;6.07;5.40;;;;;;;20.36;87.88;97624.41;4966481;28;20129;-76
2021/05/19 10:46:45;;;;;;;6.88;5.35;;;;;;;21.38;60.16;97626.34;4968843;28;20046;-77
2021/05/19 10:49:13;;;;;;;7.35;6.10;;;;;;;19.36;92.13;97631.06;4987820;28;20055;-81
2021/05/19 10:51:58;;;;;;;6.55;5.85;;;;;;;19.86;81.02;97614.84;4977732;28;20081;-78
2021/05/19 10:57:33;;;;;;;7.37;5.90;;;;;;;18.84;100.00;97624.41;4960792;28;20082;-79
2021/05/19 11:00:14;;;;;;;8.18;6.70;;;;;;;17.43;100.00;97622.59;4973298;28;20506;-79
2021/05/19 11:03:05;;;;;;;9.50;6.30;;;;;;;16.70;100.00;97624.47;4973928;28;20055;-78
2021/05/19 11:05:33;;;;;;;9.50;6.18;;;;;;;16.13;100.00;97630.44;4993055;28;20294;-80
2021/05/19 11:08:06;;;;;;;10.15;7.00;;;;;;;18.31;100.00;97609.81;4997673;28;20059;-78
2021/05/19 11:10:41;;;;;;;10.98;6.60;;;;;;;17.81;100.00;97623.75;4997497;28;20042;-78
2021/05/19 11:13:08;;;;;;;8.93;6.60;;;;;;;16.82;100.00;97621.63;4981102;28;20051;-78
2021/05/19 11:15:36;;;;;;;9.23;6.68;;;;;;;16.66;100.00;97623.59;4980419;28;20054;-78
2021/05/19 11:18:46;;;;;;;9.63;7.80;;;;;;;17.53;100.00;97623.19;4996408;28;20494;-77
2021/05/19 11:21:20;;;;;;;11.50;8.10;;;;;;;19.96;100.00;97648.28;4993048;28;20075;-78
2021/05/19 11:24:25;;;;;;;6.28;4.90;;;;;;;16.06;100.00;97654.81;4968123;28;20153;-77
2021/05/19 11:26:52;;;;;;;7.78;4.35;;;;;;;13.55;100.00;97651.50;4941862;29;20086;-78
2021/05/19 11:29:23;;;;;;;7.60;5.15;;;;;;;12.08;100.00;97647.22;4984346;28;20046;-79
2021/05/19 11:31:52;;;;;;;6.93;5.32;;;;;;;11.94;100.00;97666.38;4980591;28;20082;-78
2021/05/19 11:34:20;;;;;;;11.15;7.03;;;;;;;11.66;100.00;97673.25;4978583;28;20054;-80
2021/05/19 11:36:58;;;;;;;9.73;7.63;;;;;;;11.15;100.00;97699.22;4978424;28;20047;-79
2021/05/19 11:39:45;;;;;;;10.98;8.00;;;;;;;10.84;100.00;97714.75;4979469;28;20046;-79
2021/05/19 11:42:28;;;;;;;11.23;6.60;;;;;;;10.27;100.00;97699.59;4961397;28;20404;-79
2021/05/19 11:45:04;;;;;;;12.40;8.13;;;;;;;10.12;100.00;97708.06;4973686;28;20093;-78
2021/05/19 11:47:31;;;;;;;13.52;8.30;;;;;;;9.80;100.00;97719.94;4994738;28;20221;-79
2021/05/19 11:50:33;;;;;;;12.85;8.73;;;;;;;9.69;100.00;97727.50;4978126;28;20066;-80
2021/05/19 11:53:14;;;;;;;12.68;9.45;;;;;;;9.71;100.00;97735.28;4971690;28;20086;-79